Time;durP1;ratioP1;P1;durP2;ratioP2;P2;SDS_P1;SDS_P2;PMS_P1;PMS_P2;Temp;Humidity;BMP_temperature;BMP_pressure;BME280_temperature;BME280_humidity;BME280_pressure;Samples;Min_cycle;Max_cycle;Signal;HPM_P1;HPM_P2
2023/03/27 00:00:42;;;;;;;;;1.67;1.67;;;;;12.53;100.00;101457.38;4964505;28;45471;-77
2023/03/27 00:03:09;;;;;;;;;1.67;1.00;;;;;12.43;100.00;101482.75;4958685;28;47865;-77
2023/03/27 00:05:35;;;;;;;;;1.00;0.67;;;;;12.56;100.00;101485.22;4966320;28;45314;-76
2023/03/27 00:08:00;;;;;;;;;2.00;1.00;;;;;12.86;100.00;101503.28;4966851;28;45487;-76
2023/03/27 00:10:27;;;;;;;;;4.00;2.00;;;;;12.62;99.29;101451.06;4964087;28;45252;-77
2023/03/27 00:12:53;;;;;;;;;6.67;1.67;;;;;12.89;98.53;101519.34;4964148;28;45731;-77
2023/03/27 00:15:19;;;;;;;;;5.00;2.00;;;;;12.59;99.92;101524.94;4969589;28;45377;-76
2023/03/27 00:17:49;;;;;;;;;3.33;2.00;;;;;12.28;99.33;101524.19;4968601;28;45325;-77
2023/03/27 00:20:17;;;;;;;;;1.33;1.33;;;;;12.24;100.00;101559.03;4972480;28;45665;-76
2023/03/27 00:22:42;;;;;;;;;3.00;2.00;;;;;12.14;100.00;101536.34;4978039;28;47380;-77
2023/03/27 00:25:10;;;;;;;;;3.00;1.33;;;;;12.35;100.00;101558.03;4972925;28;45319;-77
2023/03/27 00:27:36;;;;;;;;;2.33;2.00;;;;;12.35;100.00;101567.09;4973997;28;45325;-77
2023/03/27 00:30:03;;;;;;;;;2.00;1.00;;;;;12.43;100.00;101566.38;4966504;28;45547;-77
2023/03/27 00:32:29;;;;;;;;;5.00;1.00;;;;;12.39;100.00;101529.53;4972045;28;45614;-77
2023/03/27 00:34:55;;;;;;;;;1.00;1.00;;;;;12.55;100.00;101553.50;4976185;28;45416;-77
2023/03/27 00:37:20;;;;;;;;;2.67;2.00;;;;;12.86;100.00;101587.81;4963835;28;45450;-77
2023/03/27 00:39:49;;;;;;;;;2.67;1.00;;;;;12.48;100.00;101542.31;4976300;28;45349;-77
2023/03/27 00:42:21;;;;;;;;;3.33;2.00;;;;;12.38;100.00;101590.47;4997210;28;45469;-77
2023/03/27 00:44:50;;;;;;;;;2.00;2.00;;;;;12.54;98.87;101585.34;4971962;28;45294;-76
2023/03/27 00:47:27;;;;;;;;;3.33;2.00;;;;;12.86;97.78;101582.34;4966127;28;45472;-77
2023/03/27 00:49:53;;;;;;;;;3.67;2.67;;;;;12.76;96.77;101590.56;4972581;28;45404;-76
2023/03/27 00:52:20;;;;;;;;;2.00;0.33;;;;;12.83;96.65;101596.31;4967775;28;46147;-77
2023/03/27 00:54:46;;;;;;;;;4.00;1.33;;;;;12.82;96.83;101610.94;4976615;28;45344;-76
2023/03/27 00:57:17;;;;;;;;;3.00;0.00;;;;;12.85;97.84;101602.47;4963991;28;45364;-76
2023/03/27 00:59:47;;;;;;;;;2.00;2.00;;;;;12.61;97.38;101593.81;5003605;28;45379;-76
2023/03/27 01:02:13;;;;;;;;;2.00;1.00;;;;;12.64;98.53;101596.28;4966078;28;45361;-76
2023/03/27 01:04:40;;;;;;;;;3.33;2.00;;;;;12.91;97.69;101631.91;4979487;28;45493;-76
2023/03/27 01:07:07;;;;;;;;;1.67;1.00;;;;;12.69;97.71;101640.34;4964742;28;45451;-76
2023/03/27 01:09:32;;;;;;;;;2.67;2.00;;;;;12.73;99.72;101639.03;4972097;28;45717;-74
2023/03/27 01:12:16;;;;;;;;;1.33;0.67;;;;;12.83;98.62;101643.53;4963643;28;47016;-76
2023/03/27 01:14:48;;;;;;;;;3.67;1.00;;;;;12.88;98.61;101651.28;4979386;28;45875;-77
2023/03/27 01:17:31;;;;;;;;;4.00;3.00;;;;;12.48;100.00;101633.13;4968170;28;45598;-76
2023/03/27 01:20:06;;;;;;;;;1.00;1.00;;;;;12.50;100.00;101652.03;4968589;28;45363;-76
2023/03/27 01:22:44;;;;;;;;;2.33;2.33;;;;;12.48;100.00;101668.56;4968817;28;45435;-77
2023/03/27 01:25:41;;;;;;;;;1.00;1.00;;;;;12.52;100.00;101660.94;4973589;28;45221;-75
2023/03/27 01:28:42;;;;;;;;;3.67;2.33;;;;;12.37;100.00;101665.06;4971128;28;45415;-75
2023/03/27 01:31:14;;;;;;;;;1.33;1.00;;;;;12.42;100.00;101682.72;4967882;28;45868;-75
2023/03/27 01:34:08;;;;;;;;;1.00;1.00;;;;;12.36;100.00;101646.97;4964979;28;46371;-75
2023/03/27 01:37:20;;;;;;;;;3.00;1.00;;;;;12.41;100.00;101683.75;4976443;28;45531;-75
2023/03/27 01:40:18;;;;;;;;;1.33;1.33;;;;;12.37;100.00;101687.72;4978777;28;45473;-75
2023/03/27 01:42:48;;;;;;;;;4.00;4.00;;;;;12.21;100.00;101662.84;4965788;28;45396;-75
2023/03/27 01:45:21;;;;;;;;;1.00;1.00;;;;;12.23;100.00;101687.22;4967573;28;46451;-75
2023/03/27 01:47:54;;;;;;;;;3.33;3.33;;;;;12.12;100.00;101690.91;4974070;28;45329;-75
2023/03/27 01:50:37;;;;;;;;;4.00;1.67;;;;;11.97;100.00;101682.22;5000613;28;45454;-76
2023/03/27 01:53:14;;;;;;;;;3.33;3.33;;;;;12.18;100.00;101697.69;4967461;28;45414;-75
2023/03/27 01:55:45;;;;;;;;;2.00;2.00;;;;;12.09;100.00;101689.31;4969031;28;48242;-75
2023/03/27 01:58:20;;;;;;;;;1.33;1.33;;;;;12.09;100.00;101700.22;4971680;28;45511;-75
2023/03/27 02:00:51;;;;;;;;;2.00;0.00;;;;;12.01;100.00;101680.09;4970431;28;45419;-75
2023/03/27 02:03:37;;;;;;;;;1.00;1.00;;;;;12.13;100.00;101694.50;4996837;28;45434;-75
2023/03/27 02:06:18;;;;;;;;;5.33;3.33;;;;;12.23;100.00;101701.72;4963567;28;45803;-75
2023/03/27 02:09:08;;;;;;;;;5.33;3.33;;;;;12.30;100.00;101708.34;4968841;28;45385;-76
2023/03/27 02:11:38;;;;;;;;;2.67;2.33;;;;;12.36;100.00;101710.50;4958222;28;45527;-75
2023/03/27 02:14:22;;;;;;;;;4.00;3.00;;;;;12.37;100.00;101703.22;4978869;28;45403;-76
2023/03/27 02:16:55;;;;;;;;;2.33;1.00;;;;;12.51;100.00;101715.59;4965892;28;46674;-76
2023/03/27 02:19:28;;;;;;;;;3.33;1.00;;;;;12.30;100.00;101696.56;4971302;28;45313;-76
2023/03/27 02:21:54;;;;;;;;;1.00;1.00;;;;;12.23;100.00;101723.50;4969251;28;45298;-76
2023/03/27 02:24:20;;;;;;;;;4.00;4.00;;;;;12.10;100.00;101739.22;4963901;28;45550;-75
2023/03/27 02:26:52;;;;;;;;;2.00;2.00;;;;;12.11;100.00;101712.84;4965818;28;46836;-75
2023/03/27 02:29:36;;;;;;;;;4.00;4.00;;;;;12.24;100.00;101729.81;4971164;28;45353;-76
2023/03/27 02:32:29;;;;;;;;;2.33;2.33;;;;;12.28;100.00;101732.13;4966349;28;45423;-75
2023/03/27 02:35:02;;;;;;;;;6.67;2.00;;;;;12.28;100.00;101736.72;4978705;28;45407;-76
2023/03/27 02:37:35;;;;;;;;;0.33;0.33;;;;;12.25;100.00;101739.72;4963517;28;45488;-76
2023/03/27 02:40:32;;;;;;;;;2.00;2.00;;;;;12.16;100.00;101743.25;4977626;28;45435;-75
2023/03/27 02:43:24;;;;;;;;;1.33;1.00;;;;;12.25;100.00;101754.22;4965710;28;45348;-76
2023/03/27 02:46:15;;;;;;;;;4.00;2.00;;;;;12.22;100.00;101759.06;4965393;28;45385;-76
2023/03/27 02:48:51;;;;;;;;;2.00;2.00;;;;;12.22;100.00;101764.50;4972509;28;45496;-76
2023/03/27 02:51:42;;;;;;;;;3.00;3.00;;;;;12.08;100.00;101733.91;4972906;28;45442;-75
2023/03/27 02:54:13;;;;;;;;;1.67;0.33;;;;;12.31;100.00;101764.56;4969116;28;45386;-75
2023/03/27 02:56:45;;;;;;;;;6.00;2.00;;;;;12.12;100.00;101747.25;4964668;28;45556;-75
2023/03/27 02:59:18;;;;;;;;;4.00;2.33;;;;;12.03;100.00;101757.09;4971451;28;47623;-76
2023/03/27 03:01:44;;;;;;;;;4.67;2.33;;;;;12.05;100.00;101766.00;4998422;28;45462;-75
2023/03/27 03:04:18;;;;;;;;;3.00;3.00;;;;;11.81;100.00;101747.19;4979218;28;45566;-75
2023/03/27 03:06:44;;;;;;;;;1.67;1.67;;;;;11.68;100.00;101757.38;4967144;28;45456;-77
2023/03/27 03:09:13;;;;;;;;;1.00;1.00;;;;;11.91;100.00;101774.47;4976614;28;47081;-76
2023/03/27 03:11:50;;;;;;;;;4.33;1.33;;;;;11.89;100.00;101766.47;4964318;28;45325;-76
2023/03/27 03:14:20;;;;;;;;;4.67;3.00;;;;;11.86;100.00;101791.22;4976961;28;45233;-76
2023/03/27 03:16:45;;;;;;;;;2.67;1.33;;;;;11.74;100.00;101791.38;4985131;28;45538;-76
2023/03/27 03:19:11;;;;;;;;;2.00;2.00;;;;;11.95;100.00;101781.41;4975519;28;48273;-76
2023/03/27 03:21:38;;;;;;;;;3.00;3.00;;;;;11.98;100.00;101770.25;4969443;28;45666;-76
2023/03/27 03:24:04;;;;;;;;;0.00;0.00;;;;;12.03;100.00;101787.06;4976374;28;45167;-76
2023/03/27 03:26:31;;;;;;;;;2.33;2.33;;;;;11.88;100.00;101758.41;4970187;28;45230;-76
2023/03/27 03:28:56;;;;;;;;;1.00;1.00;;;;;12.09;100.00;101784.66;4976742;28;45547;-75
2023/03/27 03:31:22;;;;;;;;;3.00;3.00;;;;;12.12;100.00;101775.38;4971312;28;45404;-76
2023/03/27 03:33:48;;;;;;;;;1.67;1.33;;;;;12.14;100.00;101767.91;4976984;28;45411;-76
2023/03/27 03:36:14;;;;;;;;;7.00;3.00;;;;;12.27;100.00;101793.06;4980648;28;46424;-76
2023/03/27 03:38:40;;;;;;;;;4.67;3.00;;;;;11.95;100.00;101778.69;4972379;28;45670;-76
2023/03/27 03:41:06;;;;;;;;;3.00;2.00;;;;;12.03;100.00;101808.84;4973225;28;45210;-76
2023/03/27 03:43:32;;;;;;;;;3.00;3.00;;;;;12.12;100.00;101812.63;4973347;28;45191;-76
2023/03/27 03:45:58;;;;;;;;;6.00;6.00;;;;;11.93;100.00;101781.53;4969298;28;45406;-77
2023/03/27 03:48:23;;;;;;;;;1.67;1.33;;;;;12.02;100.00;101790.75;4973246;28;46760;-78
2023/03/27 03:50:49;;;;;;;;;9.00;6.00;;;;;12.06;100.00;101825.78;4972283;28;45720;-75
2023/03/27 03:53:17;;;;;;;;;4.00;3.00;;;;;11.99;100.00;101815.53;4980646;28;45384;-76
2023/03/27 03:55:44;;;;;;;;;1.00;1.00;;;;;11.89;100.00;101822.78;4981176;28;45475;-77
2023/03/27 03:58:10;;;;;;;;;3.33;3.33;;;;;12.09;100.00;101841.88;4965787;28;46767;-75
2023/03/27 04:00:38;;;;;;;;;1.67;1.00;;;;;12.04;100.00;101810.56;4972182;28;45415;-75
2023/03/27 04:03:08;;;;;;;;;13.33;8.67;;;;;12.21;100.00;101839.94;4966721;28;45421;-75
2023/03/27 04:05:36;;;;;;;;;4.67;2.67;;;;;12.22;100.00;101858.00;4972767;28;45543;-74
2023/03/27 04:08:02;;;;;;;;;6.00;2.67;;;;;12.24;100.00;101856.03;4967112;28;45478;-75
2023/03/27 04:10:29;;;;;;;;;6.00;2.00;;;;;12.23;100.00;101843.41;4970554;28;45391;-76
2023/03/27 04:12:54;;;;;;;;;3.33;3.00;;;;;12.19;100.00;101862.88;4968118;28;45386;-76
2023/03/27 04:15:20;;;;;;;;;4.67;3.00;;;;;12.18;100.00;101836.63;4979762;28;45613;-77
2023/03/27 04:17:47;;;;;;;;;6.67;4.00;;;;;12.25;100.00;101844.13;4970195;28;45708;-76
2023/03/27 04:20:13;;;;;;;;;6.00;2.00;;;;;12.19;100.00;101869.19;4978989;28;45801;-74
2023/03/27 04:22:45;;;;;;;;;4.00;3.00;;;;;12.04;100.00;101859.59;5002620;28;45484;-74
2023/03/27 04:25:12;;;;;;;;;6.67;2.67;;;;;12.10;100.00;101869.97;5006821;28;45502;-77
2023/03/27 04:27:38;;;;;;;;;4.00;1.00;;;;;12.28;100.00;101876.53;4971694;28;45381;-75
2023/03/27 04:30:07;;;;;;;;;7.00;3.00;;;;;12.34;100.00;101894.25;4979007;28;45351;-75
2023/03/27 04:32:33;;;;;;;;;7.00;3.00;;;;;12.36;100.00;101908.59;4969686;28;45282;-76
2023/03/27 04:34:59;;;;;;;;;3.00;2.00;;;;;12.08;100.00;101875.53;5007092;28;45279;-75
2023/03/27 04:37:25;;;;;;;;;2.00;1.00;;;;;12.20;100.00;101921.81;4964156;28;45425;-76
2023/03/27 04:39:51;;;;;;;;;6.67;3.00;;;;;12.10;100.00;101921.72;5006987;28;45462;-76
2023/03/27 04:42:21;;;;;;;;;3.00;3.00;;;;;12.08;100.00;101888.28;4966413;28;45663;-76
2023/03/27 04:44:46;;;;;;;;;8.33;6.00;;;;;12.17;100.00;101917.50;4971837;28;45330;-76
2023/03/27 04:47:12;;;;;;;;;6.33;6.33;;;;;12.24;100.00;101929.59;4966134;28;45541;-74
2023/03/27 04:49:38;;;;;;;;;6.67;4.00;;;;;12.23;100.00;101927.88;4970399;28;45283;-75
2023/03/27 04:52:07;;;;;;;;;5.00;3.00;;;;;12.43;100.00;101932.47;4967503;28;45436;-75
2023/03/27 04:54:33;;;;;;;;;3.33;3.33;;;;;12.03;100.00;101913.22;4976603;28;45401;-75
2023/03/27 04:57:00;;;;;;;;;1.33;1.33;;;;;11.80;100.00;101932.47;4962156;28;47242;-75
2023/03/27 04:59:33;;;;;;;;;6.00;6.00;;;;;12.24;100.00;101935.03;4975795;28;45348;-77
2023/03/27 05:02:00;;;;;;;;;8.33;6.00;;;;;12.34;100.00;101944.19;4964627;28;45434;-75
2023/03/27 05:04:26;;;;;;;;;3.33;3.33;;;;;12.41;100.00;101945.38;4971092;28;45467;-77
2023/03/27 05:06:54;;;;;;;;;3.00;1.00;;;;;12.09;100.00;101955.41;4959272;28;45584;-75
2023/03/27 05:09:19;;;;;;;;;2.67;2.67;;;;;12.12;100.00;101955.16;4966121;28;45321;-75
2023/03/27 05:11:48;;;;;;;;;2.00;2.00;;;;;12.09;100.00;101939.06;4961409;28;45366;-76
2023/03/27 05:14:15;;;;;;;;;8.67;6.67;;;;;12.17;100.00;101941.13;4973638;28;45486;-77
2023/03/27 05:16:41;;;;;;;;;2.33;1.33;;;;;12.06;100.00;101942.91;4959358;28;46117;-76
2023/03/27 05:19:06;;;;;;;;;6.33;2.33;;;;;12.15;100.00;101954.03;4971809;28;45328;-76
2023/03/27 05:21:32;;;;;;;;;11.33;5.33;;;;;12.38;100.00;101966.56;4964917;28;45392;-77
2023/03/27 05:23:57;;;;;;;;;2.00;2.00;;;;;12.27;100.00;101953.84;4973870;28;45567;-76
2023/03/27 05:26:22;;;;;;;;;1.67;1.67;;;;;12.24;100.00;101945.06;4964137;28;46759;-75
2023/03/27 05:28:48;;;;;;;;;7.67;7.67;;;;;12.35;100.00;101967.69;4975137;28;46070;-76
2023/03/27 05:31:13;;;;;;;;;7.00;7.00;;;;;12.45;100.00;101962.31;4967666;28;45758;-76
2023/03/27 05:33:38;;;;;;;;;7.00;4.00;;;;;12.45;100.00;101968.66;4976786;28;45249;-76
2023/03/27 05:36:04;;;;;;;;;6.33;3.33;;;;;12.10;100.00;101940.78;4967730;28;46552;-76
2023/03/27 05:38:30;;;;;;;;;3.00;3.00;;;;;12.29;100.00;101983.69;4970348;28;45448;-76
2023/03/27 05:40:55;;;;;;;;;4.33;3.67;;;;;12.40;100.00;101998.16;4968773;28;45846;-77
2023/03/27 05:43:21;;;;;;;;;7.33;6.67;;;;;12.55;100.00;101978.75;4970673;28;45238;-77
2023/03/27 05:45:46;;;;;;;;;3.00;0.00;;;;;12.45;100.00;101995.91;4959414;28;47074;-75
2023/03/27 05:48:12;;;;;;;;;3.67;3.67;;;;;12.54;100.00;101988.81;4957592;28;45278;-76
2023/03/27 05:50:37;;;;;;;;;6.00;6.00;;;;;12.26;100.00;101982.13;4968521;28;45490;-76
2023/03/27 05:53:06;;;;;;;;;6.00;6.00;;;;;12.70;100.00;101996.53;4951208;28;45623;-77
2023/03/27 05:55:32;;;;;;;;;11.67;8.00;;;;;12.89;100.00;102004.84;4971029;28;46399;-77
2023/03/27 05:57:58;;;;;;;;;4.00;2.33;;;;;12.90;100.00;102005.72;4960244;28;45262;-76
2023/03/27 06:00:24;;;;;;;;;8.00;6.00;;;;;12.75;100.00;102011.50;4970025;28;45695;-76
2023/03/27 06:02:53;;;;;;;;;4.00;2.67;;;;;12.57;100.00;102009.47;4965876;28;45364;-78
2023/03/27 06:05:19;;;;;;;;;4.00;4.00;;;;;12.69;100.00;102006.59;4969851;28;46658;-79
2023/03/27 06:07:45;;;;;;;;;13.00;7.00;;;;;12.93;100.00;102017.22;4965637;28;45212;-76
2023/03/27 06:10:13;;;;;;;;;4.00;4.00;;;;;12.83;100.00;102024.47;4976800;28;45443;-77
2023/03/27 06:12:38;;;;;;;;;2.67;2.00;;;;;12.55;100.00;102034.16;4967726;28;45421;-76
2023/03/27 06:15:06;;;;;;;;;6.33;3.00;;;;;12.42;100.00;102034.31;4962439;28;47729;-76
2023/03/27 06:17:37;;;;;;;;;5.33;4.00;;;;;12.84;100.00;102039.84;4967772;28;45482;-76
2023/03/27 06:20:10;;;;;;;;;6.67;4.00;;;;;12.84;100.00;102018.91;4972204;28;45242;-75
2023/03/27 06:22:40;;;;;;;;;4.67;4.00;;;;;12.95;100.00;102037.06;4969160;28;45420;-75
2023/03/27 06:25:05;;;;;;;;;8.33;7.67;;;;;12.91;100.00;102034.72;4959799;28;45312;-76
2023/03/27 06:27:31;;;;;;;;;7.67;6.67;;;;;12.83;100.00;102038.13;4967097;28;45329;-76
2023/03/27 06:29:56;;;;;;;;;7.00;5.33;;;;;12.45;100.00;102052.28;4973232;28;45476;-75
2023/03/27 06:32:22;;;;;;;;;7.00;6.00;;;;;12.63;100.00;102047.16;4967951;28;45313;-75
2023/03/27 06:34:48;;;;;;;;;6.00;6.00;;;;;12.87;100.00;102050.47;4971766;28;45569;-76
2023/03/27 06:37:14;;;;;;;;;6.33;3.33;;;;;12.86;100.00;102062.38;4967509;28;45374;-75
2023/03/27 06:39:39;;;;;;;;;9.67;5.33;;;;;12.82;100.00;102056.34;4975803;28;45753;-76
2023/03/27 06:42:05;;;;;;;;;4.33;3.00;;;;;13.00;100.00;102061.22;4969896;28;45352;-75
2023/03/27 06:44:31;;;;;;;;;4.67;4.67;;;;;13.13;100.00;102056.47;4972761;28;46233;-77
2023/03/27 06:46:56;;;;;;;;;3.00;3.00;;;;;13.04;100.00;102057.22;4967441;28;45437;-74
2023/03/27 06:49:22;;;;;;;;;3.00;3.00;;;;;13.17;100.00;102058.78;4974950;28;45267;-76
2023/03/27 06:51:47;;;;;;;;;6.00;4.67;;;;;13.15;100.00;102066.22;4968059;28;45503;-75
2023/03/27 06:54:13;;;;;;;;;6.00;6.00;;;;;13.47;100.00;102066.16;4969049;28;46401;-76
2023/03/27 06:56:38;;;;;;;;;5.67;3.00;;;;;13.35;100.00;102071.84;4970214;28;45327;-76
2023/03/27 06:59:04;;;;;;;;;3.33;3.33;;;;;13.04;100.00;102063.53;4957726;28;45230;-76
2023/03/27 07:01:29;;;;;;;;;4.00;4.00;;;;;13.34;100.00;102086.47;4996794;28;45397;-77
2023/03/27 07:03:55;;;;;;;;;3.00;3.00;;;;;13.35;100.00;102088.22;4969221;28;46604;-77
2023/03/27 07:06:21;;;;;;;;;5.00;4.00;;;;;13.05;100.00;102095.28;4968350;28;45332;-75
2023/03/27 07:08:46;;;;;;;;;5.33;2.00;;;;;13.27;100.00;102090.75;4972666;28;45362;-76
2023/03/27 07:11:12;;;;;;;;;7.33;4.33;;;;;13.30;100.00;102101.38;4969473;28;45397;-76
2023/03/27 07:13:39;;;;;;;;;5.00;4.00;;;;;13.15;100.00;102095.41;4974106;28;45430;-76
2023/03/27 07:16:05;;;;;;;;;8.67;6.00;;;;;13.44;100.00;102082.78;4969878;28;45313;-75
2023/03/27 07:18:31;;;;;;;;;6.67;4.00;;;;;13.93;100.00;102084.78;4975658;28;45430;-76
2023/03/27 07:20:56;;;;;;;;;7.33;3.00;;;;;13.79;100.00;102074.22;4968943;28;45300;-76
2023/03/27 07:23:21;;;;;;;;;3.67;3.67;;;;;13.91;100.00;102089.50;4976181;28;54330;-75
2023/03/27 07:25:48;;;;;;;;;5.33;4.00;;;;;14.19;100.00;102097.94;4972751;28;45212;-75
2023/03/27 07:28:15;;;;;;;;;3.00;2.67;;;;;14.35;100.00;102090.09;4969777;28;45345;-77
2023/03/27 07:30:41;;;;;;;;;4.00;3.00;;;;;14.71;97.60;102108.63;4974184;28;45607;-75
2023/03/27 07:33:08;;;;;;;;;3.67;3.33;;;;;14.90;93.26;102107.78;4973875;28;46433;-77
2023/03/27 07:35:34;;;;;;;;;1.00;1.00;;;;;14.22;86.44;102084.03;4978205;28;45424;-77
2023/03/27 07:38:01;;;;;;;;;3.00;3.00;;;;;14.03;84.31;102079.34;5000100;28;45292;-76
2023/03/27 07:40:27;;;;;;;;;2.00;2.00;;;;;14.16;79.57;102073.66;4973481;28;45341;-76
2023/03/27 07:42:52;;;;;;;;;3.33;3.33;;;;;14.50;78.89;102079.66;4961464;28;47659;-76
2023/03/27 07:45:20;;;;;;;;;7.00;3.00;;;;;14.63;71.51;102074.75;4999388;28;45479;-76
2023/03/27 07:47:46;;;;;;;;;2.00;0.00;;;;;14.87;70.88;102090.78;4968019;28;45320;-78
2023/03/27 07:50:17;;;;;;;;;4.00;2.00;;;;;15.11;66.15;102091.22;4974852;28;45361;-76
2023/03/27 07:52:44;;;;;;;;;5.33;4.00;;;;;14.89;66.00;102108.78;5003716;28;45891;-77
2023/03/27 07:55:13;;;;;;;;;8.00;4.00;;;;;15.11;65.17;102110.38;5004751;28;45815;-76
2023/03/27 07:57:40;;;;;;;;;6.67;5.67;;;;;15.32;65.63;102097.38;4969706;28;45389;-76
2023/03/27 08:00:13;;;;;;;;;2.00;2.00;;;;;15.73;64.67;102111.72;5004913;28;45545;-76
2023/03/27 08:02:39;;;;;;;;;3.67;1.33;;;;;16.03;62.73;102105.13;4957216;28;47118;-79
2023/03/27 08:05:07;;;;;;;;;4.33;1.67;;;;;16.22;60.15;102107.75;4970854;28;45463;-76
2023/03/27 08:07:34;;;;;;;;;3.00;1.33;;;;;16.50;58.89;102116.88;4999395;28;45332;-79
2023/03/27 08:09:59;;;;;;;;;3.33;2.00;;;;;16.64;57.07;102108.16;5003510;28;45432;-76
2023/03/27 08:12:25;;;;;;;;;3.00;3.00;;;;;16.64;55.04;102114.50;4967868;28;45447;-76
2023/03/27 08:14:52;;;;;;;;;0.67;0.67;;;;;16.81;54.50;102131.97;4972793;28;45309;-76
2023/03/27 08:17:18;;;;;;;;;5.00;3.00;;;;;16.61;54.04;102130.38;4945206;28;45297;-76
2023/03/27 08:19:45;;;;;;;;;5.00;4.00;;;;;17.03;53.64;102139.75;4971270;28;45531;-76
2023/03/27 08:22:10;;;;;;;;;2.33;1.00;;;;;16.84;52.09;102145.41;4999809;28;47227;-75
2023/03/27 08:24:35;;;;;;;;;6.00;2.67;;;;;16.90;53.37;102153.00;4979607;28;45392;-77
2023/03/27 08:27:02;;;;;;;;;4.00;3.00;;;;;16.01;55.39;102132.69;4970169;28;49812;-76
2023/03/27 08:29:27;;;;;;;;;1.00;1.00;;;;;16.61;53.55;102161.44;4972645;28;45150;-77
2023/03/27 08:31:53;;;;;;;;;3.00;3.00;;;;;16.68;53.40;102164.44;4969133;28;45416;-77
2023/03/27 08:34:18;;;;;;;;;4.67;3.33;;;;;16.86;53.56;102162.59;4963481;28;45416;-77
2023/03/27 08:36:44;;;;;;;;;3.67;2.33;;;;;15.89;54.35;102167.66;4971089;28;45281;-77
2023/03/27 08:39:10;;;;;;;;;4.00;2.33;;;;;15.77;56.28;102170.72;4979821;28;46285;-76
2023/03/27 08:41:39;;;;;;;;;2.67;2.67;;;;;15.77;55.73;102170.72;4972504;28;45313;-77
2023/03/27 08:44:10;;;;;;;;;2.00;2.00;;;;;15.48;56.98;102177.06;4971808;28;45457;-77
2023/03/27 08:46:45;;;;;;;;;3.00;3.00;;;;;15.30;58.38;102180.66;4965946;28;45341;-77
2023/03/27 08:49:17;;;;;;;;;2.00;2.00;;;;;15.49;56.76;102195.22;4969826;28;45255;-76
2023/03/27 08:51:59;;;;;;;;;3.00;1.67;;;;;15.47;57.29;102186.28;4962519;28;48281;-77
2023/03/27 08:54:29;;;;;;;;;4.00;3.00;;;;;16.05;55.14;102196.31;4975739;28;45339;-75
2023/03/27 08:56:55;;;;;;;;;1.67;1.67;;;;;16.58;56.83;102188.31;4966485;28;45312;-76
2023/03/27 08:59:25;;;;;;;;;4.00;4.00;;;;;17.45;54.03;102196.81;4970383;28;45302;-76
2023/03/27 09:01:50;;;;;;;;;5.00;2.67;;;;;16.82;51.88;102196.84;4957780;28;47293;-76
2023/03/27 09:04:22;;;;;;;;;1.00;1.00;;;;;16.86;50.95;102206.53;4958120;28;45556;-76
2023/03/27 09:07:23;;;;;;;;;1.00;1.00;;;;;16.95;50.90;102205.56;4977248;28;45626;-76
2023/03/27 09:09:54;;;;;;;;;2.00;2.00;;;;;18.00;51.16;102213.09;4963453;28;45556;-76
2023/03/27 09:12:44;;;;;;;;;4.00;4.00;;;;;17.71;48.35;102214.25;4976828;28;47659;-76
2023/03/27 09:15:24;;;;;;;;;3.67;3.67;;;;;18.38;47.87;102200.78;4965736;28;45282;-76
2023/03/27 09:18:11;;;;;;;;;3.67;3.00;;;;;18.93;46.77;102206.69;4970162;28;45401;-76
2023/03/27 09:20:44;;;;;;;;;4.67;2.67;;;;;18.39;44.66;102219.88;4962691;28;45440;-77
2023/03/27 09:23:19;;;;;;;;;5.33;3.00;;;;;18.25;43.54;102213.09;4969993;28;45451;-76
2023/03/27 09:25:50;;;;;;;;;1.67;0.67;;;;;17.98;40.68;102227.00;4972017;28;45518;-76
2023/03/27 09:28:49;;;;;;;;;4.33;2.00;;;;;17.79;41.49;102235.44;5002098;28;45976;-76
2023/03/27 09:31:27;;;;;;;;;4.00;1.00;;;;;16.52;43.82;102232.78;4962440;28;45353;-76
2023/03/27 09:33:55;;;;;;;;;2.00;2.00;;;;;15.91;44.60;102231.41;4961520;28;47228;-76
2023/03/27 09:36:23;;;;;;;;;5.00;2.00;;;;;16.07;46.94;102240.91;4968963;28;45265;-76
2023/03/27 09:38:52;;;;;;;;;4.33;3.00;;;;;16.33;46.00;102237.34;4975684;28;45530;-76
2023/03/27 09:41:32;;;;;;;;;2.00;2.00;;;;;16.13;44.70;102246.66;4972416;28;45231;-76
2023/03/27 09:44:26;;;;;;;;;1.33;1.33;;;;;16.07;46.29;102258.19;4970504;28;46627;-77
2023/03/27 09:47:16;;;;;;;;;2.00;2.00;;;;;17.05;46.09;102255.81;4966587;28;45348;-77
2023/03/27 09:49:49;;;;;;;;;0.00;0.00;;;;;16.86;43.79;102255.94;4976172;28;45233;-77
2023/03/27 09:52:51;;;;;;;;;5.00;1.67;;;;;17.76;43.41;102266.84;4963603;28;45619;-78
2023/03/27 09:55:29;;;;;;;;;2.67;2.33;;;;;18.27;42.10;102244.03;4980283;28;45546;-77
2023/03/27 09:58:08;;;;;;;;;2.67;1.00;;;;;18.82;42.92;102257.44;4962651;28;45281;-77
2023/03/27 10:00:34;;;;;;;;;1.00;1.00;;;;;18.92;41.33;102258.16;4968226;28;45504;-78
2023/03/27 10:03:06;;;;;;;;;2.00;2.00;;;;;19.03;40.45;102246.84;4957639;28;45306;-78
2023/03/27 10:05:33;;;;;;;;;3.33;2.00;;;;;19.44;40.04;102263.47;4971100;28;45661;-78
2023/03/27 10:08:00;;;;;;;;;2.00;0.00;;;;;19.44;37.73;102247.78;4967713;28;45222;-77
2023/03/27 10:10:31;;;;;;;;;3.00;3.00;;;;;19.52;37.61;102262.66;4971462;28;45480;-77
2023/03/27 10:12:58;;;;;;;;;1.00;1.00;;;;;20.14;37.93;102253.72;5003721;28;45812;-78
2023/03/27 10:15:30;;;;;;;;;3.00;2.67;;;;;20.16;37.45;102262.66;4973277;28;45706;-77
2023/03/27 10:17:55;;;;;;;;;4.00;2.67;;;;;19.33;37.75;102250.03;4960011;28;45412;-77
2023/03/27 10:20:22;;;;;;;;;1.67;1.67;;;;;20.10;37.59;102257.84;4972796;28;45491;-77
2023/03/27 10:23:01;;;;;;;;;3.33;2.00;;;;;19.65;37.66;102257.53;4967999;28;45450;-77
2023/03/27 10:25:33;;;;;;;;;5.00;4.67;;;;;19.72;37.05;102239.25;4977511;28;47780;-77
2023/03/27 10:28:16;;;;;;;;;1.00;1.00;;;;;19.81;36.25;102252.00;4964584;28;45399;-78
2023/03/27 10:30:42;;;;;;;;;1.33;1.33;;;;;19.97;35.78;102248.38;4971409;28;45427;-76
2023/03/27 10:33:08;;;;;;;;;2.33;1.00;;;;;19.50;36.49;102243.56;4974586;28;45618;-76
2023/03/27 10:35:36;;;;;;;;;5.67;2.33;;;;;19.54;37.00;102255.09;4971897;28;46896;-76
2023/03/27 10:38:09;;;;;;;;;3.33;3.33;;;;;19.82;37.15;102253.72;4967759;28;45485;-76
2023/03/27 10:40:37;;;;;;;;;2.00;2.00;;;;;20.05;36.90;102253.88;4972241;28;45327;-76
2023/03/27 10:43:08;;;;;;;;;1.00;1.00;;;;;20.03;36.30;102254.06;4975196;28;45444;-77
2023/03/27 10:45:45;;;;;;;;;1.00;1.00;;;;;20.21;36.61;102251.97;4964582;28;45441;-76
2023/03/27 10:48:28;;;;;;;;;1.00;1.00;;;;;20.35;35.43;102264.22;4966112;28;45412;-78
2023/03/27 10:51:02;;;;;;;;;1.00;1.00;;;;;20.41;36.32;102259.91;4968828;28;45568;-75
2023/03/27 10:53:45;;;;;;;;;3.00;2.00;;;;;19.54;34.84;102266.97;4954671;28;45258;-78
2023/03/27 10:56:22;;;;;;;;;4.67;3.00;;;;;19.62;35.94;102257.84;4970103;28;46413;-77
2023/03/27 10:59:00;;;;;;;;;5.00;2.00;;;;;18.93;37.87;102273.66;4971836;28;46087;-77
2023/03/27 11:01:33;;;;;;;;;2.67;1.67;;;;;18.52;38.23;102275.34;4963246;28;45436;-77
2023/03/27 11:04:25;;;;;;;;;2.00;2.00;;;;;16.91;40.43;102282.91;4958517;28;45417;-76
2023/03/27 11:06:58;;;;;;;;;2.67;2.67;;;;;17.28;41.22;102282.84;4966138;28;46454;-76
2023/03/27 11:09:30;;;;;;;;;2.00;2.00;;;;;17.37;41.58;102281.91;4976737;28;45813;-77
2023/03/27 11:12:03;;;;;;;;;4.67;4.67;;;;;17.18;41.02;102279.28;4962563;28;45491;-76
2023/03/27 11:14:44;;;;;;;;;3.00;3.00;;;;;17.21;41.39;102287.22;4970787;28;45395;-75
2023/03/27 11:17:15;;;;;;;;;2.67;1.00;;;;;17.30;41.91;102287.16;4965950;28;46457;-75
2023/03/27 11:20:05;;;;;;;;;3.67;3.67;;;;;17.95;41.55;102297.97;4968697;28;45483;-75
2023/03/27 11:22:39;;;;;;;;;3.67;3.67;;;;;19.07;40.32;102285.09;4968494;28;45432;-77
2023/03/27 11:25:34;;;;;;;;;4.67;3.33;;;;;18.91;38.61;102283.13;4983810;28;45662;-77
2023/03/27 11:28:09;;;;;;;;;6.33;4.67;;;;;18.98;37.82;102281.44;4980204;28;47138;-75
2023/03/27 11:30:50;;;;;;;;;4.67;2.33;;;;;18.95;37.48;102288.13;4973428;28;45329;-75
2023/03/27 11:33:21;;;;;;;;;5.33;3.00;;;;;18.22;37.69;102306.94;4970300;28;45304;-75
2023/03/27 11:35:56;;;;;;;;;2.00;2.00;;;;;18.46;38.52;102292.50;4974258;28;45461;-75